createdAt,value
2023-04-11T00:01:50.871Z,69.10
2023-04-11T00:08:22.491Z,68.50
2023-04-11T00:14:58.722Z,72.70
2023-04-11T00:20:49.586Z,80.00
2023-04-11T00:26:48.865Z,81.20
2023-04-11T00:32:46.529Z,81.80
2023-04-11T00:39:38.884Z,78.30
2023-04-11T00:46:32.430Z,82.10
2023-04-11T00:53:05.153Z,86.90
2023-04-11T00:58:33.952Z,74.60
2023-04-11T01:03:51.513Z,69.90
2023-04-11T01:09:26.806Z,61.60
2023-04-11T01:14:59.543Z,58.40
2023-04-11T01:20:21.604Z,60.70
2023-04-11T01:25:33.478Z,57.10
2023-04-11T01:31:00.382Z,52.00
2023-04-11T01:36:39.498Z,52.00
2023-04-11T01:42:04.448Z,50.80
2023-04-11T01:48:23.968Z,48.20
2023-04-11T01:54:02.038Z,49.30
2023-04-11T01:59:12.650Z,51.00
2023-04-11T02:04:29.409Z,50.30
2023-04-11T02:10:32.239Z,49.60
2023-04-11T02:16:07.935Z,49.20
2023-04-11T02:21:53.922Z,49.20
2023-04-11T02:27:23.162Z,48.00
2023-04-11T02:32:43.933Z,50.60
2023-04-11T02:38:06.400Z,50.30
2023-04-11T02:43:54.698Z,51.60
2023-04-11T02:50:26.582Z,51.30
2023-04-11T03:02:56.880Z,50.20
2023-04-11T03:09:02.529Z,46.00
2023-04-11T03:15:01.642Z,44.30
2023-04-11T03:20:14.113Z,49.60
2023-04-11T03:26:08.019Z,45.40
2023-04-11T03:32:59.723Z,47.60
2023-04-11T03:39:32.444Z,41.20
2023-04-11T03:45:54.234Z,45.90
2023-04-11T03:51:56.301Z,41.20
2023-04-11T03:57:38.917Z,38.80
2023-04-11T04:04:11.270Z,42.50
2023-04-11T04:10:13.969Z,38.20
2023-04-11T04:15:55.197Z,34.60
2023-04-11T04:21:37.598Z,33.00
2023-04-11T04:27:00.293Z,33.50
2023-04-11T04:32:25.675Z,33.60
2023-04-11T04:37:50.275Z,29.80
2023-04-11T04:43:18.048Z,32.00
2023-04-11T05:02:01.878Z,38.30
2023-04-11T05:07:19.184Z,34.40
2023-04-11T05:12:26.742Z,34.80
2023-04-11T05:18:21.120Z,38.80
2023-04-11T05:24:03.894Z,40.50
2023-04-11T05:29:31.162Z,36.30
2023-04-11T05:35:32.367Z,41.80
2023-04-11T05:41:51.649Z,39.90
2023-04-11T05:48:22.304Z,35.00
2023-04-11T05:53:45.794Z,37.20
2023-04-11T05:59:07.738Z,34.50
2023-04-11T06:04:25.655Z,35.20
2023-04-11T06:09:41.380Z,47.60
2023-04-11T06:15:40.622Z,43.00
2023-04-11T06:21:02.276Z,36.20
2023-04-11T06:26:52.358Z,39.70
2023-04-11T06:32:29.680Z,38.60
2023-04-11T06:38:53.256Z,34.80
2023-04-11T06:45:16.087Z,35.20
2023-04-11T06:51:29.983Z,29.10
2023-04-11T06:57:28.481Z,29.10
2023-04-11T07:03:45.985Z,19.20
2023-04-11T07:15:23.673Z,14.80
2023-04-11T07:21:01.522Z,14.20
2023-04-11T07:26:51.322Z,13.80
2023-04-11T07:32:28.365Z,13.00
2023-04-11T07:38:00.053Z,10.70
2023-04-11T07:43:42.546Z,11.60
2023-04-11T07:50:05.044Z,14.30
2023-04-11T07:56:00.154Z,12.10
2023-04-11T08:01:21.511Z,10.70
2023-04-11T08:06:57.303Z,11.80
2023-04-11T08:12:17.637Z,13.50
2023-04-11T08:17:38.180Z,12.20
2023-04-11T08:23:10.913Z,11.80
2023-04-11T08:28:21.920Z,11.50
2023-04-11T08:33:57.742Z,10.30
2023-04-11T08:39:11.937Z,11.20
2023-04-11T08:44:43.281Z,10.20
2023-04-11T08:50:06.784Z,10.00
2023-04-11T08:55:32.629Z,11.30
2023-04-11T09:01:43.917Z,11.00
2023-04-11T09:07:34.414Z,11.00
2023-04-11T09:13:18.148Z,10.60
2023-04-11T09:19:03.695Z,12.70
2023-04-11T09:24:35.742Z,12.00
2023-04-11T09:30:00.702Z,10.50
2023-04-11T09:35:28.230Z,9.60
2023-04-11T09:41:09.379Z,10.30
2023-04-11T09:46:23.433Z,10.50
2023-04-11T09:51:56.335Z,9.90
2023-04-11T09:57:18.475Z,10.30
2023-04-11T10:02:38.209Z,10.00
2023-04-11T10:08:33.912Z,10.80
2023-04-11T10:14:05.374Z,10.40
2023-04-11T10:19:35.033Z,8.90
2023-04-11T10:25:19.891Z,8.90
2023-04-11T10:31:39.384Z,8.60
2023-04-11T10:37:55.265Z,9.40
2023-04-11T10:43:44.396Z,9.00
2023-04-11T10:50:16.706Z,8.50
2023-04-11T10:55:35.799Z,8.40
2023-04-11T11:01:21.122Z,7.70
2023-04-11T11:06:51.088Z,7.80
2023-04-11T11:12:29.657Z,7.70
2023-04-11T11:17:43.099Z,6.90
2023-04-11T11:23:56.028Z,6.60
2023-04-11T11:29:31.430Z,7.80
2023-04-11T11:34:38.488Z,8.10
2023-04-11T11:40:05.004Z,9.30
2023-04-11T11:45:57.153Z,10.80
2023-04-11T11:51:14.534Z,11.40
2023-04-11T11:56:17.400Z,12.10
2023-04-11T12:02:14.694Z,10.00
2023-04-11T12:07:57.996Z,10.20
2023-04-11T12:13:34.210Z,10.10
2023-04-11T12:18:57.789Z,9.90
2023-04-11T12:24:12.732Z,9.70
2023-04-11T12:29:41.681Z,8.30
2023-04-11T12:34:54.313Z,9.40
2023-04-11T12:40:11.914Z,9.10
2023-04-11T12:45:49.357Z,9.30
2023-04-11T12:51:10.430Z,8.90
2023-04-11T12:56:16.757Z,8.90
2023-04-11T13:01:18.686Z,9.40
2023-04-11T13:06:52.333Z,11.40
2023-04-11T13:12:07.176Z,11.50
2023-04-11T13:17:36.557Z,10.80
2023-04-11T13:23:00.281Z,10.90
2023-04-11T13:28:09.031Z,11.10
2023-04-11T13:34:10.722Z,12.40
2023-04-11T13:39:35.736Z,11.40
2023-04-11T13:45:00.559Z,11.60
2023-04-11T13:50:22.877Z,11.10
2023-04-11T13:55:41.271Z,11.80
2023-04-11T14:01:15.627Z,8.90
2023-04-11T14:06:42.787Z,9.70
2023-04-11T14:12:08.970Z,11.50
2023-04-11T14:18:18.215Z,13.30
2023-04-11T14:29:42.280Z,15.90
2023-04-11T14:35:20.257Z,14.30
2023-04-11T14:41:34.379Z,13.00
2023-04-11T14:48:47.950Z,14.40
2023-04-11T14:55:50.877Z,16.00
2023-04-11T15:02:54.757Z,13.70
2023-04-11T15:08:27.559Z,17.10
2023-04-11T15:13:41.809Z,16.20
2023-04-11T15:19:09.259Z,14.60
2023-04-11T15:24:20.403Z,14.20
2023-04-11T15:29:25.003Z,14.60
2023-04-11T15:35:18.093Z,14.00
2023-04-11T15:41:06.996Z,17.50
2023-04-11T15:46:11.490Z,19.00
2023-04-11T15:51:41.087Z,16.60
2023-04-11T15:57:17.764Z,17.50
2023-04-11T16:02:24.349Z,16.80
2023-04-11T16:08:08.220Z,15.50
2023-04-11T16:13:33.308Z,15.60
2023-04-11T16:19:06.034Z,12.70
2023-04-11T16:24:42.717Z,13.80
2023-04-11T16:30:25.750Z,15.30
2023-04-11T16:35:34.732Z,14.80
2023-04-11T16:41:37.256Z,12.90
2023-04-11T16:47:59.630Z,9.20
2023-04-11T16:53:16.871Z,7.30
2023-04-11T16:59:27.652Z,7.70
2023-04-11T17:06:14.873Z,9.30
2023-04-11T17:12:54.003Z,9.10
2023-04-11T17:18:54.395Z,9.10
2023-04-11T17:24:39.064Z,6.10
2023-04-11T17:31:00.808Z,4.70
2023-04-11T17:36:35.020Z,5.10
2023-04-11T17:42:48.290Z,5.30
2023-04-11T17:48:33.775Z,5.20
2023-04-11T17:54:43.347Z,4.70
2023-04-11T18:02:05.114Z,5.30
2023-04-11T18:08:15.026Z,8.50
2023-04-11T18:14:21.033Z,9.30
2023-04-11T18:19:58.648Z,8.70
2023-04-11T18:26:07.537Z,9.30
2023-04-11T18:33:11.977Z,8.20
2023-04-11T18:39:57.306Z,6.90
2023-04-11T18:46:57.394Z,8.80
2023-04-11T18:53:45.067Z,7.00
2023-04-11T18:59:39.032Z,8.90
2023-04-11T19:05:54.029Z,10.90
2023-04-11T19:18:49.808Z,13.20
2023-04-11T19:24:59.339Z,11.70
2023-04-11T19:31:26.490Z,10.50
2023-04-11T19:37:17.311Z,11.30
2023-04-11T19:42:23.937Z,12.40
2023-04-11T19:48:16.991Z,12.00
2023-04-11T19:54:03.720Z,11.70
2023-04-11T20:00:01.400Z,11.20
2023-04-11T20:05:50.361Z,9.80
2023-04-11T20:11:59.126Z,11.70
2023-04-11T20:18:24.909Z,11.50
2023-04-11T20:24:51.023Z,10.50
2023-04-11T20:31:34.690Z,10.10
2023-04-11T20:38:06.249Z,10.10
2023-04-11T20:44:28.146Z,9.80
2023-04-11T20:51:31.046Z,9.10
2023-04-11T20:58:09.005Z,9.20
2023-04-11T21:03:59.586Z,9.70
2023-04-11T21:09:43.655Z,9.00
2023-04-11T21:16:25.285Z,8.30
2023-04-11T21:23:07.120Z,9.20
2023-04-11T21:29:31.229Z,9.10
2023-04-11T21:35:19.587Z,8.90
2023-04-11T21:40:57.410Z,8.10
2023-04-11T21:46:31.542Z,7.60
2023-04-11T21:52:29.129Z,7.10
2023-04-11T21:58:03.139Z,8.20
2023-04-11T22:03:23.283Z,8.40
2023-04-11T22:09:33.964Z,8.00
2023-04-11T22:16:20.438Z,9.00
2023-04-11T22:23:24.735Z,7.80
2023-04-11T22:30:14.101Z,8.10
2023-04-11T22:36:14.080Z,8.70
2023-04-11T22:43:03.787Z,7.80
2023-04-11T22:49:44.154Z,8.10
2023-04-11T22:55:48.307Z,7.00
2023-04-11T23:02:15.185Z,6.80
2023-04-11T23:08:00.943Z,7.40
2023-04-11T23:13:40.642Z,8.60
2023-04-11T23:18:59.591Z,7.20
2023-04-11T23:24:33.843Z,7.40
2023-04-11T23:30:21.267Z,6.90
2023-04-11T23:35:52.226Z,6.50
2023-04-11T23:41:54.434Z,5.60
2023-04-11T23:47:47.267Z,5.90
2023-04-11T23:53:07.720Z,5.10
2023-04-11T23:58:22.542Z,4.10
